createdAt,value
2023-03-01T00:09:46.975Z,-0.40
2023-03-01T00:24:49.049Z,-0.50
2023-03-01T00:39:51.191Z,-0.40
2023-03-01T00:54:54.060Z,-0.50
2023-03-01T01:09:56.283Z,-0.70
2023-03-01T01:24:58.374Z,-0.90
2023-03-01T01:40:04.775Z,-1.00
2023-03-01T01:55:22.015Z,-1.30
2023-03-01T02:10:25.671Z,-1.10
2023-03-01T02:25:36.740Z,-1.40
2023-03-01T02:40:40.309Z,-1.30
2023-03-01T02:55:42.359Z,-1.60
2023-03-01T03:10:44.512Z,-1.80
2023-03-01T03:25:48.640Z,-1.40
2023-03-01T03:40:53.023Z,-1.30
2023-03-01T03:55:55.604Z,-1.50
2023-03-01T04:11:25.705Z,-1.60
2023-03-01T04:26:28.415Z,-1.70
2023-03-01T04:41:30.429Z,-2.10
2023-03-01T04:56:32.729Z,-2.00
2023-03-01T05:11:36.921Z,-1.80
2023-03-01T05:26:41.624Z,-1.90
2023-03-01T05:41:43.680Z,-1.90
2023-03-01T05:56:46.274Z,-1.80
2023-03-01T06:11:48.170Z,-2.00
2023-03-01T06:26:50.166Z,-1.90
2023-03-01T06:41:53.715Z,-2.10
2023-03-01T06:56:56.154Z,-1.20
2023-03-01T07:11:59.024Z,-1.10
2023-03-01T07:27:00.948Z,-0.50
2023-03-01T07:42:02.930Z,-0.70
2023-03-01T07:57:04.977Z,0.60
2023-03-01T08:12:07.253Z,3.30
2023-03-01T08:27:09.957Z,4.90
2023-03-01T08:42:11.895Z,6.30
2023-03-01T08:57:13.891Z,7.00
2023-03-01T09:12:15.931Z,3.80
2023-03-01T09:27:20.043Z,5.10
2023-03-01T09:42:22.508Z,6.90
2023-03-01T09:57:51.665Z,6.00
2023-03-01T10:12:54.918Z,6.10
2023-03-01T10:28:05.267Z,5.90
2023-03-01T10:43:07.371Z,6.00
2023-03-01T10:58:18.508Z,6.20
2023-03-01T11:13:21.314Z,7.20
2023-03-01T11:28:24.078Z,7.00
2023-03-01T11:43:34.859Z,6.20
2023-03-01T11:59:08.210Z,6.30
2023-03-01T12:14:34.334Z,6.40
2023-03-01T12:29:59.158Z,6.50
2023-03-01T12:45:20.043Z,6.60
2023-03-01T13:01:01.838Z,6.50
2023-03-01T13:16:30.103Z,6.70
2023-03-01T13:31:32.414Z,6.20
2023-03-01T13:46:35.141Z,6.00
2023-03-01T14:01:37.987Z,6.00
2023-03-01T14:16:46.885Z,6.10
2023-03-01T14:31:53.243Z,6.10
2023-03-01T14:46:57.109Z,6.30
2023-03-01T15:02:00.303Z,6.10
2023-03-01T15:17:02.245Z,6.10
2023-03-01T15:32:07.720Z,6.20
2023-03-01T15:47:29.856Z,6.20
2023-03-01T16:02:31.790Z,6.10
2023-03-01T16:17:33.761Z,6.00
2023-03-01T16:32:40.522Z,5.70
2023-03-01T16:47:43.063Z,5.40
2023-03-01T17:02:45.463Z,5.20
2023-03-01T17:17:51.887Z,5.10
2023-03-01T17:32:55.875Z,4.70
2023-03-01T17:47:58.064Z,4.70
2023-03-01T18:03:00.144Z,4.50
2023-03-01T18:18:02.289Z,4.30
2023-03-01T18:33:04.377Z,4.00
2023-03-01T18:48:06.449Z,3.60
2023-03-01T19:03:08.932Z,3.30
2023-03-01T19:18:10.936Z,2.90
2023-03-01T19:33:25.472Z,2.70
2023-03-01T20:04:34.271Z,2.30
2023-03-01T20:19:38.967Z,2.00
2023-03-01T20:34:48.671Z,1.90
2023-03-01T20:49:52.183Z,1.70
2023-03-01T21:04:54.435Z,1.70
2023-03-01T21:19:58.654Z,1.80
2023-03-01T21:35:00.850Z,1.10
2023-03-01T21:50:02.796Z,1.10
2023-03-01T22:05:04.968Z,0.90
2023-03-01T22:20:07.702Z,0.60
2023-03-01T22:35:10.047Z,0.10
2023-03-01T22:50:15.229Z,0.70
2023-03-01T23:05:17.213Z,0.80
2023-03-01T23:20:19.331Z,0.60
2023-03-01T23:35:21.344Z,0.50
2023-03-01T23:50:24.410Z,0.40
